Time;durP1;ratioP1;P1;durP2;ratioP2;P2;SDS_P1;SDS_P2;PMS_P1;PMS_P2;Temp;Humidity;BMP_temperature;BMP_pressure;BME280_temperature;BME280_humidity;BME280_pressure;Samples;Min_cycle;Max_cycle;Signal;HPM_P1;HPM_P2
2023/05/12 00:00:57;;;;;;;1.20;1.10;;;15.00;98.50;;;;;;5110331;27;20901;-65
2023/05/12 00:03:24;;;;;;;2.20;1.53;;;15.00;98.50;;;;;;5109703;27;20658;-65
2023/05/12 00:05:51;;;;;;;5.13;2.03;;;15.00;98.60;;;;;;5106669;27;20231;-65
2023/05/12 00:08:18;;;;;;;4.47;1.70;;;15.00;98.60;;;;;;5113598;27;20227;-65
2023/05/12 00:10:45;;;;;;;2.30;2.10;;;15.00;98.60;;;;;;5122119;27;20211;-65
2023/05/12 00:13:13;;;;;;;2.07;1.97;;;15.00;98.60;;;;;;5116802;27;20686;-65
2023/05/12 00:15:40;;;;;;;5.43;2.50;;;15.00;98.70;;;;;;5121251;27;20227;-64
2023/05/12 00:18:07;;;;;;;6.87;3.10;;;15.10;98.80;;;;;;5119059;27;20203;-65
2023/05/12 00:20:34;;;;;;;6.87;3.40;;;15.10;98.80;;;;;;5116067;27;20197;-65
2023/05/12 00:23:01;;;;;;;4.43;3.37;;;15.10;98.80;;;;;;5117586;27;20279;-65
2023/05/12 00:25:28;;;;;;;4.37;3.63;;;15.10;98.80;;;;;;5118885;27;20201;-65
2023/05/12 00:27:55;;;;;;;4.83;4.43;;;15.10;98.80;;;;;;5119314;27;20673;-65
2023/05/12 00:30:22;;;;;;;4.23;3.83;;;15.10;98.80;;;;;;5118719;27;20213;-65
2023/05/12 00:32:49;;;;;;;4.73;4.33;;;15.10;98.80;;;;;;5124314;27;20206;-65
2023/05/12 00:35:16;;;;;;;11.23;5.00;;;15.10;98.80;;;;;;5125297;27;20268;-65
2023/05/12 00:37:43;;;;;;;6.77;4.43;;;15.10;98.80;;;;;;5117323;28;20193;-65
2023/05/12 00:40:11;;;;;;;5.73;4.97;;;15.10;98.90;;;;;;5119361;28;20314;-65
2023/05/12 00:42:38;;;;;;;7.43;4.97;;;15.10;98.90;;;;;;5115016;28;20208;-65
2023/05/12 00:45:06;;;;;;;5.57;4.73;;;15.10;98.90;;;;;;5120316;28;20196;-65
2023/05/12 00:47:33;;;;;;;4.97;4.50;;;15.10;99.00;;;;;;5112043;28;20232;-65
2023/05/12 00:50:01;;;;;;;4.00;3.70;;;15.10;99.00;;;;;;5121182;28;20215;-65
2023/05/12 00:52:28;;;;;;;5.23;3.23;;;15.10;99.00;;;;;;5117157;28;20195;-65
2023/05/12 00:54:55;;;;;;;2.63;2.43;;;15.10;98.80;;;;;;5113690;28;20217;-65
2023/05/12 00:57:24;;;;;;;3.40;2.23;;;15.10;98.60;;;;;;5115311;28;20201;-65
2023/05/12 00:59:51;;;;;;;2.47;2.27;;;15.00;98.40;;;;;;5117551;28;20680;-65
2023/05/12 01:02:19;;;;;;;2.43;2.23;;;15.00;98.40;;;;;;5120812;28;20204;-65
2023/05/12 01:04:47;;;;;;;3.30;2.13;;;14.90;98.40;;;;;;5112149;28;20265;-65
2023/05/12 01:07:20;;;;;;;3.60;2.33;;;14.80;98.50;;;;;;5115847;28;20303;-65
2023/05/12 01:09:53;;;;;;;2.30;2.10;;;14.80;98.60;;;;;;5132663;27;20258;-65
2023/05/12 01:12:22;;;;;;;3.63;2.37;;;14.80;98.70;;;;;;5125605;28;20203;-65
2023/05/12 01:14:51;;;;;;;2.07;1.87;;;14.80;98.80;;;;;;5099694;28;20189;-65
2023/05/12 01:17:26;;;;;;;5.33;2.43;;;14.80;98.80;;;;;;5120468;28;20200;-65
2023/05/12 01:19:57;;;;;;;4.37;2.30;;;14.80;98.70;;;;;;5104433;28;20211;-65
2023/05/12 01:22:30;;;;;;;2.97;2.43;;;14.80;98.80;;;;;;5118727;27;20200;-65
2023/05/12 01:25:04;;;;;;;3.13;2.23;;;14.80;98.90;;;;;;5119857;27;20291;-65
2023/05/12 01:27:32;;;;;;;3.07;2.37;;;14.80;99.00;;;;;;5116875;27;20556;-65
2023/05/12 01:30:03;;;;;;;4.33;2.53;;;14.80;99.00;;;;;;5115668;27;20197;-65
2023/05/12 01:32:34;;;;;;;4.47;3.00;;;14.80;99.00;;;;;;5117103;27;20226;-65
2023/05/12 01:35:02;;;;;;;4.93;2.90;;;14.80;99.00;;;;;;5104294;27;20204;-66
2023/05/12 01:37:31;;;;;;;6.23;2.70;;;14.80;99.10;;;;;;5117668;27;20202;-65
2023/05/12 01:40:01;;;;;;;2.70;2.50;;;14.80;99.10;;;;;;5119969;27;20221;-65
2023/05/12 01:42:28;;;;;;;4.13;2.50;;;14.80;99.10;;;;;;5134351;27;20291;-65
2023/05/12 01:44:56;;;;;;;3.77;2.40;;;14.80;99.10;;;;;;5120320;27;20301;-65
2023/05/12 01:47:24;;;;;;;4.87;2.83;;;14.80;99.10;;;;;;5118827;27;20236;-65
2023/05/12 01:49:59;;;;;;;5.17;2.83;;;14.80;98.90;;;;;;5122396;27;20242;-65
2023/05/12 01:52:27;;;;;;;5.47;3.40;;;14.80;98.70;;;;;;5123463;27;20205;-65
2023/05/12 01:54:54;;;;;;;3.90;3.43;;;14.80;98.70;;;;;;5115964;27;20192;-65
2023/05/12 01:57:21;;;;;;;4.63;3.47;;;14.70;98.60;;;;;;5119051;27;20299;-65
2023/05/12 01:59:51;;;;;;;6.47;3.90;;;14.70;98.70;;;;;;5120675;27;20548;-65
2023/05/12 02:02:18;;;;;;;6.30;4.30;;;14.60;98.70;;;;;;5116488;27;20205;-65
2023/05/12 02:04:45;;;;;;;4.83;4.43;;;14.60;98.80;;;;;;5118629;27;20232;-65
2023/05/12 02:07:14;;;;;;;5.27;4.73;;;14.50;98.90;;;;;;5099257;28;20231;-65
2023/05/12 02:09:42;;;;;;;6.07;4.50;;;14.50;99.00;;;;;;5118741;27;20188;-65
2023/05/12 02:12:09;;;;;;;7.33;4.33;;;14.50;99.10;;;;;;5119617;27;20202;-65
2023/05/12 02:14:36;;;;;;;5.33;4.83;;;14.40;99.20;;;;;;5114653;27;20188;-65
2023/05/12 02:17:04;;;;;;;7.23;4.90;;;14.40;99.20;;;;;;5113237;27;20196;-65
2023/05/12 02:19:31;;;;;;;7.30;4.70;;;14.40;99.30;;;;;;5113198;27;20212;-65
2023/05/12 02:21:58;;;;;;;5.50;5.00;;;14.40;99.30;;;;;;5117260;27;20204;-65
2023/05/12 02:24:25;;;;;;;5.47;4.60;;;14.40;99.40;;;;;;5107615;27;20208;-65
2023/05/12 02:26:52;;;;;;;5.67;5.17;;;14.40;99.40;;;;;;5123525;27;20222;-65
2023/05/12 02:29:19;;;;;;;7.13;5.50;;;14.50;99.50;;;;;;5122526;27;20225;-65
2023/05/12 02:31:47;;;;;;;5.77;5.27;;;14.50;99.50;;;;;;5119917;27;20264;-64
2023/05/12 02:34:16;;;;;;;5.90;5.30;;;14.40;99.40;;;;;;5120998;27;20203;-64
2023/05/12 02:36:43;;;;;;;5.87;4.83;;;14.40;99.50;;;;;;5119724;27;20268;-65
2023/05/12 02:39:11;;;;;;;5.43;3.93;;;14.30;99.40;;;;;;5113923;27;20219;-65
2023/05/12 02:41:38;;;;;;;3.80;3.50;;;14.30;99.40;;;;;;5120041;27;20299;-65
2023/05/12 02:44:05;;;;;;;4.87;3.57;;;14.20;99.50;;;;;;5114385;27;20518;-65
2023/05/12 02:46:33;;;;;;;4.17;2.93;;;14.20;99.60;;;;;;5114341;27;20306;-65
2023/05/12 02:49:00;;;;;;;3.33;3.03;;;14.20;99.60;;;;;;5115493;27;20548;-65
2023/05/12 02:51:27;;;;;;;3.60;3.30;;;14.10;99.70;;;;;;5104981;28;20640;-65
2023/05/12 02:53:53;;;;;;;3.40;3.00;;;14.10;99.70;;;;;;5107191;27;20204;-65
2023/05/12 02:56:21;;;;;;;3.67;3.30;;;14.10;99.70;;;;;;5114549;27;20272;-65
2023/05/12 02:58:48;;;;;;;10.03;3.87;;;14.10;99.80;;;;;;5113635;27;20196;-65
2023/05/12 03:01:15;;;;;;;6.60;3.87;;;14.10;99.70;;;;;;5110165;27;20211;-65
2023/05/12 03:03:42;;;;;;;4.40;4.00;;;14.00;99.70;;;;;;5114493;27;20188;-65
2023/05/12 03:06:09;;;;;;;4.20;3.80;;;14.00;99.70;;;;;;5112384;27;20202;-65
2023/05/12 03:08:37;;;;;;;4.93;4.37;;;14.00;99.70;;;;;;5120932;27;20576;-65
2023/05/12 03:11:04;;;;;;;7.53;4.27;;;14.00;99.80;;;;;;5124397;27;20220;-65
2023/05/12 03:13:32;;;;;;;5.93;4.73;;;14.00;99.80;;;;;;5120124;27;20220;-65
2023/05/12 03:16:00;;;;;;;5.10;3.93;;;14.00;99.80;;;;;;5112829;27;20544;-65
2023/05/12 03:18:28;;;;;;;5.73;4.80;;;14.00;99.80;;;;;;5117745;27;20205;-65
2023/05/12 03:20:56;;;;;;;5.03;4.53;;;14.00;99.90;;;;;;5122642;27;20623;-65
2023/05/12 03:23:23;;;;;;;6.60;4.87;;;14.10;99.90;;;;;;5121062;27;20252;-65
2023/05/12 03:25:50;;;;;;;4.60;4.20;;;14.10;99.90;;;;;;5122976;27;20195;-65
2023/05/12 03:28:17;;;;;;;7.60;4.30;;;14.10;99.90;;;;;;5106145;28;20306;-65
2023/05/12 03:30:44;;;;;;;10.70;5.37;;;14.10;99.90;;;;;;5108478;28;20268;-65
2023/05/12 03:33:11;;;;;;;6.63;4.70;;;14.20;99.90;;;;;;5119495;27;20275;-65
2023/05/12 03:35:38;;;;;;;8.20;5.40;;;14.20;99.90;;;;;;5113597;27;20272;-65
2023/05/12 03:38:06;;;;;;;6.13;5.37;;;14.20;99.90;;;;;;5119382;27;20246;-65
2023/05/12 03:40:33;;;;;;;8.20;5.43;;;14.20;99.90;;;;;;5120601;27;20200;-65
2023/05/12 03:43:01;;;;;;;7.47;5.80;;;14.20;99.90;;;;;;5117806;27;20269;-65
2023/05/12 03:45:28;;;;;;;6.03;5.03;;;14.30;99.90;;;;;;5119347;27;20207;-65
2023/05/12 03:47:55;;;;;;;7.00;5.80;;;14.30;99.90;;;;;;5118588;27;20234;-65
2023/05/12 03:50:22;;;;;;;7.77;6.03;;;14.30;99.90;;;;;;5117640;27;20695;-65
2023/05/12 03:52:49;;;;;;;10.37;5.90;;;14.30;99.90;;;;;;5118143;27;20627;-65
2023/05/12 03:55:16;;;;;;;8.30;7.40;;;14.30;99.90;;;;;;5120181;27;20203;-65
2023/05/12 03:57:43;;;;;;;7.87;7.07;;;14.30;99.90;;;;;;5115560;27;20220;-65
2023/05/12 04:00:11;;;;;;;11.07;8.37;;;14.30;99.90;;;;;;5116034;27;20218;-65
2023/05/12 04:02:45;;;;;;;9.63;7.53;;;14.30;99.90;;;;;;5118852;27;20552;-65
2023/05/12 04:05:13;;;;;;;9.80;6.90;;;14.30;99.80;;;;;;5132583;27;20534;-65
2023/05/12 04:07:41;;;;;;;7.20;6.50;;;14.30;99.80;;;;;;5115050;27;20546;-65
2023/05/12 04:10:08;;;;;;;7.50;6.47;;;14.30;99.90;;;;;;5117276;27;20685;-65
2023/05/12 04:12:35;;;;;;;9.33;6.47;;;14.30;99.90;;;;;;5135071;27;20282;-65
2023/05/12 04:15:03;;;;;;;7.53;5.97;;;14.30;99.90;;;;;;5113588;27;20211;-65
2023/05/12 04:17:30;;;;;;;7.60;6.83;;;14.30;99.90;;;;;;5117752;27;20223;-65
2023/05/12 04:19:57;;;;;;;8.33;5.27;;;14.20;99.90;;;;;;5112936;28;20224;-65
2023/05/12 04:22:24;;;;;;;6.93;5.00;;;14.20;99.90;;;;;;5114731;27;20230;-65
2023/05/12 04:24:52;;;;;;;5.80;5.30;;;14.20;99.80;;;;;;5121016;27;20207;-64
2023/05/12 04:27:19;;;;;;;6.87;5.27;;;14.20;99.80;;;;;;5114213;27;20223;-65
2023/05/12 04:29:46;;;;;;;5.63;5.03;;;14.20;99.80;;;;;;5118499;27;20228;-65
2023/05/12 04:32:14;;;;;;;8.67;5.07;;;14.20;99.70;;;;;;5115242;27;20199;-65
2023/05/12 04:34:42;;;;;;;8.10;5.30;;;14.10;99.70;;;;;;5127567;27;20253;-65
2023/05/12 04:37:08;;;;;;;5.17;4.50;;;14.10;99.70;;;;;;5112275;27;20258;-64
2023/05/12 04:39:36;;;;;;;5.30;4.80;;;14.10;99.60;;;;;;5113457;28;20214;-64
2023/05/12 04:42:03;;;;;;;12.60;5.90;;;14.10;99.70;;;;;;5116172;28;20199;-64
2023/05/12 04:44:32;;;;;;;6.97;5.20;;;14.10;99.80;;;;;;5118235;28;20233;-64
2023/05/12 04:46:59;;;;;;;8.57;5.53;;;14.10;99.90;;;;;;5116966;28;20539;-64
2023/05/12 04:49:26;;;;;;;6.53;5.63;;;14.10;99.90;;;;;;5117385;28;20287;-65
2023/05/12 04:51:53;;;;;;;5.40;4.67;;;14.20;99.90;;;;;;5114314;28;20204;-65
2023/05/12 04:54:20;;;;;;;6.43;5.00;;;14.20;99.90;;;;;;5114622;28;20204;-65
2023/05/12 04:56:47;;;;;;;5.57;5.07;;;14.20;99.90;;;;;;5118934;28;20185;-65
2023/05/12 04:59:14;;;;;;;6.03;5.43;;;14.30;99.90;;;;;;5114954;27;20280;-65
2023/05/12 05:01:42;;;;;;;6.97;5.63;;;14.30;99.90;;;;;;5117195;27;20203;-65
2023/05/12 05:04:10;;;;;;;6.23;4.87;;;14.40;99.90;;;;;;5116125;27;20257;-65
2023/05/12 05:06:37;;;;;;;6.20;4.93;;;14.40;99.90;;;;;;5116422;27;20238;-65
2023/05/12 05:09:04;;;;;;;8.83;6.03;;;14.50;99.90;;;;;;5111453;27;20223;-65
2023/05/12 05:11:33;;;;;;;7.60;5.93;;;14.60;99.90;;;;;;5108993;27;20199;-65
2023/05/12 05:14:00;;;;;;;7.17;6.27;;;14.60;99.90;;;;;;5113709;27;20203;-65
2023/05/12 05:16:28;;;;;;;7.80;6.07;;;14.70;99.90;;;;;;5128707;27;20322;-64
2023/05/12 05:18:55;;;;;;;7.67;6.63;;;14.80;99.90;;;;;;5119797;27;20545;-64
2023/05/12 05:21:24;;;;;;;8.30;6.13;;;14.80;99.90;;;;;;5122902;27;20215;-64
2023/05/12 05:23:51;;;;;;;7.37;6.50;;;14.90;99.80;;;;;;5123083;27;20203;-65
2023/05/12 05:26:20;;;;;;;7.30;6.27;;;15.00;99.80;;;;;;5125442;27;20221;-65
2023/05/12 05:28:47;;;;;;;6.90;6.20;;;15.10;99.80;;;;;;5121114;27;20221;-65
2023/05/12 05:31:15;;;;;;;7.10;5.80;;;15.30;99.90;;;;;;5119800;27;20256;-65
2023/05/12 05:33:43;;;;;;;8.00;5.30;;;15.50;99.90;;;;;;5116870;27;20345;-65
2023/05/12 05:36:12;;;;;;;6.93;4.47;;;15.70;99.50;;;;;;5121398;27;20642;-65
2023/05/12 05:38:39;;;;;;;4.30;3.80;;;15.90;99.20;;;;;;5123695;27;20207;-65
2023/05/12 05:41:06;;;;;;;5.03;3.93;;;16.00;99.00;;;;;;5121229;27;20279;-65
2023/05/12 05:43:33;;;;;;;5.83;3.90;;;16.10;98.80;;;;;;5115332;27;20554;-65
2023/05/12 05:46:00;;;;;;;4.40;4.00;;;16.20;99.00;;;;;;5115247;27;20239;-65
2023/05/12 05:48:27;;;;;;;6.00;3.30;;;16.30;98.70;;;;;;5113323;27;20200;-65
2023/05/12 05:50:55;;;;;;;4.23;3.30;;;16.40;98.50;;;;;;5103678;27;20280;-65
2023/05/12 05:53:23;;;;;;;3.80;2.83;;;16.50;98.20;;;;;;5119858;27;20286;-65
2023/05/12 05:55:51;;;;;;;4.13;2.93;;;16.60;98.00;;;;;;5122310;27;20196;-65
2023/05/12 05:58:18;;;;;;;4.07;3.13;;;16.60;97.80;;;;;;5124052;27;20203;-64
2023/05/12 06:00:46;;;;;;;4.90;3.13;;;16.60;97.50;;;;;;5125421;27;20256;-64
2023/05/12 06:03:13;;;;;;;4.87;2.30;;;16.60;97.40;;;;;;5122750;27;20214;-65
2023/05/12 06:05:42;;;;;;;2.50;1.93;;;16.60;97.40;;;;;;5120901;27;20205;-65
2023/05/12 06:08:12;;;;;;;2.47;1.83;;;16.60;97.30;;;;;;5120552;27;20247;-65
2023/05/12 06:10:39;;;;;;;3.57;2.70;;;16.60;97.20;;;;;;5114398;27;20200;-64
2023/05/12 06:13:07;;;;;;;2.60;2.10;;;16.70;97.30;;;;;;5119180;27;20233;-64
2023/05/12 06:15:34;;;;;;;2.53;2.33;;;16.70;97.30;;;;;;5125768;27;20220;-64
2023/05/12 06:18:01;;;;;;;2.90;2.70;;;16.90;97.20;;;;;;5123424;27;20205;-65
2023/05/12 06:20:30;;;;;;;3.67;2.30;;;16.90;97.00;;;;;;5118710;27;20632;-65
2023/05/12 06:22:57;;;;;;;3.20;2.43;;;17.00;96.50;;;;;;5113890;27;20642;-64
2023/05/12 06:25:24;;;;;;;4.30;2.40;;;17.00;96.10;;;;;;5113714;27;20199;-65
2023/05/12 06:27:53;;;;;;;7.40;2.37;;;17.00;95.70;;;;;;5119094;27;20222;-65
2023/05/12 06:30:20;;;;;;;3.40;2.30;;;17.00;95.50;;;;;;5116104;27;20651;-65
2023/05/12 06:32:47;;;;;;;5.93;1.80;;;17.00;95.40;;;;;;5118609;27;20198;-65
2023/05/12 06:35:15;;;;;;;3.07;2.33;;;17.00;95.50;;;;;;5119236;27;20195;-65
2023/05/12 06:37:48;;;;;;;2.23;1.97;;;17.00;95.40;;;;;;5116416;27;20201;-65
2023/05/12 06:40:16;;;;;;;2.83;2.30;;;17.10;95.40;;;;;;5100806;28;20540;-65
2023/05/12 06:42:43;;;;;;;2.10;1.90;;;17.10;95.50;;;;;;5120733;27;20210;-65
2023/05/12 06:45:17;;;;;;;2.53;2.33;;;17.10;95.40;;;;;;5115371;27;20643;-65
2023/05/12 06:47:44;;;;;;;2.53;2.00;;;17.10;95.40;;;;;;5115257;27;20553;-65
2023/05/12 06:50:12;;;;;;;2.30;2.00;;;17.10;95.30;;;;;;5114088;27;20295;-64
2023/05/12 06:52:39;;;;;;;2.47;2.20;;;17.10;95.30;;;;;;5118391;27;20583;-65
2023/05/12 06:55:07;;;;;;;2.10;1.97;;;17.00;95.20;;;;;;5111497;27;20530;-65
2023/05/12 06:57:34;;;;;;;2.30;2.10;;;17.00;95.20;;;;;;5116523;27;20194;-65
2023/05/12 07:00:02;;;;;;;2.80;2.60;;;16.90;95.30;;;;;;5122654;27;20202;-65
2023/05/12 07:02:29;;;;;;;3.23;2.50;;;16.90;95.30;;;;;;5120660;27;20243;-65
2023/05/12 07:04:56;;;;;;;3.80;2.50;;;16.80;95.30;;;;;;5121376;27;20280;-65
2023/05/12 07:07:23;;;;;;;2.57;2.30;;;16.80;95.40;;;;;;5117189;27;20197;-65
2023/05/12 07:09:50;;;;;;;6.00;3.20;;;16.80;95.60;;;;;;5120257;27;20252;-65
2023/05/12 07:12:17;;;;;;;5.17;3.60;;;16.70;95.60;;;;;;5115484;27;20208;-65
2023/05/12 07:14:44;;;;;;;2.70;2.50;;;16.70;95.60;;;;;;5117117;27;20702;-65
2023/05/12 07:17:11;;;;;;;3.50;2.57;;;16.70;95.50;;;;;;5118420;27;20208;-65
2023/05/12 07:19:39;;;;;;;5.23;2.67;;;16.70;95.60;;;;;;5110072;27;20201;-65
2023/05/12 07:22:06;;;;;;;2.93;2.40;;;16.80;95.70;;;;;;5105568;27;20654;-65
2023/05/12 07:24:33;;;;;;;3.77;3.33;;;16.80;95.80;;;;;;5111785;27;20598;-65
2023/05/12 07:27:01;;;;;;;4.43;3.67;;;16.90;95.60;;;;;;5119715;27;20624;-64
2023/05/12 07:29:28;;;;;;;3.83;3.50;;;17.00;95.50;;;;;;5116591;27;20551;-65
2023/05/12 07:31:55;;;;;;;4.10;3.70;;;17.00;95.20;;;;;;5111036;27;20190;-63
2023/05/12 07:34:22;;;;;;;3.90;3.57;;;17.10;95.20;;;;;;5124518;27;20197;-64
2023/05/12 07:36:49;;;;;;;3.33;3.03;;;17.20;95.20;;;;;;5122930;27;20215;-63
2023/05/12 07:39:22;;;;;;;3.53;3.23;;;17.30;95.00;;;;;;5119480;27;20289;-67
2023/05/12 07:41:49;;;;;;;3.93;3.53;;;17.40;94.70;;;;;;5118105;27;20195;-64
2023/05/12 07:44:16;;;;;;;3.70;3.40;;;17.40;94.40;;;;;;5115968;27;20202;-64
2023/05/12 07:46:44;;;;;;;3.77;3.47;;;17.50;93.80;;;;;;5114258;27;20689;-64
2023/05/12 07:49:11;;;;;;;3.20;2.90;;;17.40;93.20;;;;;;5113802;27;20318;-64
2023/05/12 07:51:38;;;;;;;4.03;3.10;;;17.40;93.10;;;;;;5113169;27;20203;-64
2023/05/12 07:54:06;;;;;;;2.50;2.30;;;17.40;93.20;;;;;;5112551;27;20491;-64
2023/05/12 07:56:33;;;;;;;2.50;2.30;;;17.40;93.10;;;;;;5110662;27;20219;-64
2023/05/12 07:59:00;;;;;;;4.40;2.83;;;17.40;93.10;;;;;;5110574;27;20238;-64
2023/05/12 08:01:27;;;;;;;2.70;2.50;;;17.40;93.20;;;;;;5113527;27;20211;-64
2023/05/12 08:03:54;;;;;;;4.97;2.97;;;17.40;93.70;;;;;;5106973;27;20242;-64
2023/05/12 08:06:21;;;;;;;5.87;3.47;;;17.40;93.50;;;;;;5109338;27;20206;-64
2023/05/12 08:08:48;;;;;;;3.87;3.57;;;17.40;93.60;;;;;;5121640;27;20243;-64
2023/05/12 08:11:15;;;;;;;4.67;3.80;;;17.40;93.80;;;;;;5121371;27;20617;-64
2023/05/12 08:13:42;;;;;;;4.00;3.00;;;17.30;93.90;;;;;;5115796;27;20270;-64
2023/05/12 08:16:09;;;;;;;7.30;3.07;;;17.40;94.10;;;;;;5115918;27;20201;-64
2023/05/12 08:18:37;;;;;;;3.30;3.03;;;17.40;94.10;;;;;;5115329;27;20289;-64
2023/05/12 08:21:04;;;;;;;3.13;2.83;;;17.40;94.20;;;;;;5114066;27;20233;-64
2023/05/12 08:23:31;;;;;;;2.97;2.77;;;17.50;94.10;;;;;;5113636;27;20224;-64
2023/05/12 08:25:58;;;;;;;3.07;2.33;;;17.60;93.60;;;;;;5109031;27;20202;-64
2023/05/12 08:28:25;;;;;;;3.67;2.60;;;17.70;93.10;;;;;;5107533;27;20258;-64
2023/05/12 08:30:52;;;;;;;3.53;2.93;;;17.90;92.80;;;;;;5111682;28;20207;-64
2023/05/12 08:33:19;;;;;;;2.97;2.77;;;18.10;92.60;;;;;;5108835;28;20205;-65
2023/05/12 08:35:47;;;;;;;2.60;2.40;;;18.30;92.00;;;;;;5116030;27;20226;-65
2023/05/12 08:38:14;;;;;;;2.77;2.57;;;18.50;91.40;;;;;;5126972;27;20206;-64
2023/05/12 08:41:04;;;;;;;5.30;2.57;;;18.70;91.20;;;;;;5114611;28;20587;-64
2023/05/12 08:43:44;;;;;;;2.80;2.53;;;18.80;91.20;;;;;;5107949;28;20219;-64
2023/05/12 08:46:12;;;;;;;2.40;2.20;;;18.90;91.30;;;;;;5112788;28;20245;-64
2023/05/12 08:48:40;;;;;;;2.80;2.60;;;18.90;91.30;;;;;;5116509;28;20276;-64
2023/05/12 08:51:10;;;;;;;3.33;3.07;;;19.00;90.90;;;;;;5120987;28;20230;-65
2023/05/12 08:53:39;;;;;;;2.80;2.60;;;18.90;90.60;;;;;;5117473;28;20286;-65
2023/05/12 08:56:08;;;;;;;4.47;2.63;;;18.80;90.90;;;;;;5117782;28;20228;-65
2023/05/12 08:58:38;;;;;;;3.00;2.80;;;18.70;91.30;;;;;;5116082;28;20194;-65
2023/05/12 09:01:10;;;;;;;2.93;2.47;;;18.70;91.40;;;;;;5120714;28;20246;-64
2023/05/12 09:03:38;;;;;;;3.10;2.80;;;18.70;91.30;;;;;;5121555;28;20195;-65
2023/05/12 09:06:05;;;;;;;2.90;2.70;;;18.80;91.30;;;;;;5115773;28;20207;-65
2023/05/12 09:08:33;;;;;;;3.03;2.83;;;19.10;91.10;;;;;;5115219;27;20227;-65
2023/05/12 09:11:01;;;;;;;2.90;2.70;;;19.20;90.60;;;;;;5119375;28;20218;-64
2023/05/12 09:13:49;;;;;;;2.70;2.50;;;19.40;89.50;;;;;;5114234;28;20228;-65
2023/05/12 09:16:21;;;;;;;3.70;2.80;;;19.40;89.60;;;;;;5114320;28;20195;-65
2023/05/12 09:18:52;;;;;;;3.63;3.33;;;19.60;89.50;;;;;;5121902;27;20202;-64
2023/05/12 09:21:20;;;;;;;3.10;2.90;;;19.80;88.70;;;;;;5114195;28;20205;-64
2023/05/12 09:24:07;;;;;;;2.87;2.67;;;20.00;88.40;;;;;;5118653;28;20207;-65
2023/05/12 09:26:52;;;;;;;2.60;2.40;;;20.20;88.50;;;;;;5117826;28;20197;-64
2023/05/12 09:29:19;;;;;;;1.80;1.70;;;20.50;87.40;;;;;;5107947;28;20281;-64
2023/05/12 09:32:03;;;;;;;2.10;1.93;;;20.60;84.40;;;;;;5110121;28;20218;-64
2023/05/12 09:34:37;;;;;;;3.40;2.00;;;20.70;83.60;;;;;;5115581;28;20215;-66
2023/05/12 09:37:06;;;;;;;3.10;2.10;;;20.80;83.10;;;;;;5133300;27;20184;-65
2023/05/12 09:39:33;;;;;;;2.40;2.20;;;20.90;83.00;;;;;;5109537;28;20607;-67
2023/05/12 09:42:00;;;;;;;2.10;2.00;;;20.90;83.60;;;;;;5112271;28;20535;-64
2023/05/12 09:44:28;;;;;;;1.80;1.70;;;21.00;83.70;;;;;;5113456;27;20211;-67
2023/05/12 09:47:04;;;;;;;4.40;2.23;;;21.20;83.50;;;;;;5117740;27;20232;-67
2023/05/12 09:49:31;;;;;;;1.90;1.80;;;21.10;83.20;;;;;;5122750;27;20218;-67
2023/05/12 09:51:58;;;;;;;2.43;1.83;;;21.20;83.40;;;;;;5120784;27;20203;-67
2023/05/12 09:54:27;;;;;;;2.03;1.90;;;21.30;81.70;;;;;;5120747;27;20306;-69
2023/05/12 09:56:57;;;;;;;1.97;1.67;;;21.30;82.30;;;;;;5121381;27;20189;-65
2023/05/12 09:59:30;;;;;;;1.90;1.80;;;21.40;81.40;;;;;;5119331;27;20200;-66
2023/05/12 10:02:01;;;;;;;1.70;1.60;;;21.50;79.90;;;;;;5118297;27;20207;-66
2023/05/12 10:04:41;;;;;;;1.90;1.80;;;21.60;77.20;;;;;;5119877;27;20200;-66
2023/05/12 10:07:11;;;;;;;1.60;1.50;;;21.60;77.50;;;;;;5115522;27;20488;-65
2023/05/12 10:09:41;;;;;;;1.67;1.50;;;21.60;77.90;;;;;;5111497;27;20212;-65
2023/05/12 10:12:09;;;;;;;2.10;1.20;;;21.80;76.80;;;;;;5117508;27;20268;-66
2023/05/12 10:14:36;;;;;;;1.00;1.00;;;22.00;73.50;;;;;;5115685;27;20190;-65
2023/05/12 10:17:05;;;;;;;0.90;0.80;;;22.10;74.50;;;;;;5110127;27;20527;-65
2023/05/12 10:19:34;;;;;;;0.80;0.80;;;22.30;74.70;;;;;;5113784;27;20496;-66
2023/05/12 10:22:02;;;;;;;2.00;1.90;;;22.50;74.40;;;;;;5113396;27;20681;-66
2023/05/12 10:24:30;;;;;;;1.67;1.57;;;22.80;74.30;;;;;;5122702;27;20647;-66
2023/05/12 10:26:58;;;;;;;1.10;1.10;;;22.80;73.10;;;;;;5124634;27;20256;-66
2023/05/12 10:29:28;;;;;;;1.40;1.30;;;22.90;74.20;;;;;;5117457;27;20236;-65
2023/05/12 10:31:56;;;;;;;4.70;1.43;;;23.00;73.00;;;;;;5116999;27;20201;-65
2023/05/12 10:34:33;;;;;;;1.23;1.13;;;23.00;73.50;;;;;;5119952;27;20208;-66
2023/05/12 10:37:03;;;;;;;3.60;2.00;;;23.00;73.20;;;;;;5115767;27;20188;-66
2023/05/12 10:39:33;;;;;;;1.10;1.10;;;23.20;72.20;;;;;;5116566;27;20200;-66
2023/05/12 10:42:07;;;;;;;1.90;1.70;;;23.20;69.90;;;;;;5117111;27;20239;-66
2023/05/12 10:44:35;;;;;;;1.80;1.70;;;23.30;71.50;;;;;;5112784;27;20204;-66
2023/05/12 10:47:13;;;;;;;1.30;1.23;;;23.30;72.90;;;;;;5118237;27;20239;-66
2023/05/12 10:49:41;;;;;;;1.40;1.30;;;23.20;72.60;;;;;;5108633;27;20209;-67
2023/05/12 10:52:11;;;;;;;1.83;1.60;;;23.00;71.20;;;;;;5102081;27;20276;-66
2023/05/12 10:54:43;;;;;;;2.57;1.67;;;22.60;72.40;;;;;;5111498;27;20531;-66
2023/05/12 10:57:15;;;;;;;1.40;1.30;;;22.40;73.90;;;;;;5112739;27;20192;-66
2023/05/12 10:59:59;;;;;;;1.77;1.60;;;22.20;73.40;;;;;;5118905;27;20626;-66
2023/05/12 11:02:29;;;;;;;1.10;1.00;;;22.00;73.40;;;;;;5115402;27;20257;-66
2023/05/12 11:05:04;;;;;;;1.20;1.20;;;21.90;75.40;;;;;;5115191;27;20283;-66
2023/05/12 11:07:33;;;;;;;1.33;1.23;;;21.90;76.40;;;;;;5118224;27;20629;-66
2023/05/12 11:10:03;;;;;;;1.10;1.10;;;22.00;75.30;;;;;;5112117;27;20221;-67
2023/05/12 11:12:34;;;;;;;2.70;1.73;;;22.20;75.40;;;;;;5111673;27;20199;-68
2023/05/12 11:15:04;;;;;;;1.50;1.40;;;22.40;73.70;;;;;;5112080;27;20193;-64
2023/05/12 11:17:31;;;;;;;2.20;1.20;;;22.60;73.00;;;;;;5113511;27;20200;-65
2023/05/12 11:19:59;;;;;;;1.50;1.40;;;22.70;72.20;;;;;;5118457;27;20286;-68
2023/05/12 11:22:27;;;;;;;1.50;1.40;;;22.80;71.60;;;;;;5123418;27;20203;-68
2023/05/12 11:24:54;;;;;;;1.30;1.20;;;22.80;70.70;;;;;;5126524;27;20208;-69
2023/05/12 11:27:22;;;;;;;6.30;1.83;;;22.60;70.80;;;;;;5113743;27;20210;-69
2023/05/12 11:30:01;;;;;;;1.50;1.40;;;22.30;71.40;;;;;;5119373;27;20245;-65
2023/05/12 11:32:29;;;;;;;0.80;0.80;;;22.00;73.00;;;;;;5115246;27;20200;-68
2023/05/12 11:35:11;;;;;;;1.13;1.07;;;21.80;72.90;;;;;;5120171;27;20547;-65
2023/05/12 11:37:40;;;;;;;1.10;1.00;;;21.80;73.10;;;;;;5122920;27;20203;-66
2023/05/12 11:40:21;;;;;;;1.50;1.17;;;21.80;72.30;;;;;;5119225;27;20695;-67
2023/05/12 11:42:51;;;;;;;1.63;1.30;;;21.70;73.30;;;;;;5118066;27;20211;-66
2023/05/12 11:45:29;;;;;;;2.10;1.17;;;21.70;72.70;;;;;;5118662;27;20195;-66
2023/05/12 11:48:11;;;;;;;0.90;0.90;;;21.60;72.80;;;;;;5110259;27;20317;-67
2023/05/12 11:50:41;;;;;;;1.23;1.10;;;21.50;72.30;;;;;;5118305;27;20220;-67
2023/05/12 11:53:13;;;;;;;1.20;1.10;;;21.50;73.00;;;;;;5112350;27;20272;-67
2023/05/12 11:55:52;;;;;;;1.50;1.40;;;21.30;73.10;;;;;;5115193;27;20261;-68
2023/05/12 11:58:29;;;;;;;2.40;0.97;;;21.20;74.30;;;;;;5118695;27;20188;-64
2023/05/12 12:01:08;;;;;;;1.30;1.20;;;21.10;73.80;;;;;;5114985;27;20279;-66
2023/05/12 12:03:48;;;;;;;1.27;1.10;;;21.10;75.30;;;;;;5118271;27;20205;-67
2023/05/12 12:06:15;;;;;;;1.80;1.70;;;21.20;76.30;;;;;;5116867;27;20208;-68
2023/05/12 12:08:55;;;;;;;2.93;1.50;;;21.30;76.30;;;;;;5121954;27;20219;-68
2023/05/12 12:11:25;;;;;;;1.60;1.50;;;21.20;75.00;;;;;;5116131;27;20540;-67
2023/05/12 12:13:56;;;;;;;1.93;1.73;;;21.20;75.20;;;;;;5118536;27;20253;-68
2023/05/12 12:16:25;;;;;;;1.50;1.40;;;21.00;75.90;;;;;;5115141;27;20193;-67
2023/05/12 12:18:52;;;;;;;1.50;1.40;;;20.90;76.80;;;;;;5113521;27;20195;-68
2023/05/12 12:21:21;;;;;;;1.50;1.40;;;20.70;76.30;;;;;;5114285;27;20193;-68
2023/05/12 12:23:48;;;;;;;1.27;1.17;;;20.50;76.90;;;;;;5118180;27;20211;-68
2023/05/12 12:26:19;;;;;;;1.40;1.30;;;20.30;77.50;;;;;;5114955;27;20295;-68
2023/05/12 12:28:46;;;;;;;2.23;1.50;;;20.20;78.30;;;;;;5115593;27;20231;-68
2023/05/12 12:31:14;;;;;;;5.53;1.30;;;20.00;78.90;;;;;;5114107;27;20200;-68
2023/05/12 12:33:42;;;;;;;1.50;1.40;;;20.00;79.10;;;;;;5115532;27;20199;-68
2023/05/12 12:36:09;;;;;;;1.23;1.10;;;19.90;78.80;;;;;;5116522;27;20512;-66
2023/05/12 12:38:36;;;;;;;2.27;1.30;;;19.90;78.70;;;;;;5115889;28;20283;-66
2023/05/12 12:41:04;;;;;;;0.80;0.80;;;19.90;79.00;;;;;;5125378;28;20199;-67
2023/05/12 12:43:31;;;;;;;1.23;0.60;;;19.80;79.60;;;;;;5123091;28;20211;-66
2023/05/12 12:45:58;;;;;;;0.93;0.70;;;19.70;79.50;;;;;;5125037;28;20211;-68
2023/05/12 12:48:27;;;;;;;2.10;1.03;;;19.70;79.70;;;;;;5121834;28;20589;-67
2023/05/12 12:50:54;;;;;;;1.43;0.60;;;19.50;80.10;;;;;;5116934;28;20227;-68
2023/05/12 12:53:21;;;;;;;6.90;0.73;;;19.40;79.40;;;;;;5114864;28;20274;-67